sensor_id;sensor_type;location;lat;lon;timestamp;P1;durP1;ratioP1;P2;durP2;ratioP2
25191;SDS011;13143;50.924;5.320;2023-05-10T00:00:09;10.10;;;8.50;;
25191;SDS011;13143;50.924;5.320;2023-05-10T00:02:42;11.48;;;9.32;;
25191;SDS011;13143;50.924;5.320;2023-05-10T00:05:18;10.23;;;8.80;;
25191;SDS011;13143;50.924;5.320;2023-05-10T00:07:51;12.88;;;9.63;;
25191;SDS011;13143;50.924;5.320;2023-05-10T00:10:23;13.13;;;9.48;;
25191;SDS011;13143;50.924;5.320;2023-05-10T00:12:50;13.30;;;9.43;;
25191;SDS011;13143;50.924;5.320;2023-05-10T00:15:19;12.50;;;9.40;;
25191;SDS011;13143;50.924;5.320;2023-05-10T00:17:45;14.40;;;10.35;;
25191;SDS011;13143;50.924;5.320;2023-05-10T00:20:15;14.10;;;10.50;;
25191;SDS011;13143;50.924;5.320;2023-05-10T00:22:41;14.57;;;10.43;;
25191;SDS011;13143;50.924;5.320;2023-05-10T00:25:09;14.98;;;10.40;;
25191;SDS011;13143;50.924;5.320;2023-05-10T00:27:50;14.95;;;11.18;;
25191;SDS011;13143;50.924;5.320;2023-05-10T00:30:16;14.25;;;8.95;;
25191;SDS011;13143;50.924;5.320;2023-05-10T00:32:52;12.18;;;9.20;;
25191;SDS011;13143;50.924;5.320;2023-05-10T00:35:24;13.02;;;8.98;;
25191;SDS011;13143;50.924;5.320;2023-05-10T00:38:15;12.10;;;9.60;;
25191;SDS011;13143;50.924;5.320;2023-05-10T00:40:45;12.52;;;8.82;;
25191;SDS011;13143;50.924;5.320;2023-05-10T00:43:23;12.40;;;9.35;;
25191;SDS011;13143;50.924;5.320;2023-05-10T00:45:59;12.38;;;9.07;;
25191;SDS011;13143;50.924;5.320;2023-05-10T00:48:34;12.77;;;9.48;;
25191;SDS011;13143;50.924;5.320;2023-05-10T00:51:02;13.13;;;9.68;;
25191;SDS011;13143;50.924;5.320;2023-05-10T00:53:42;14.50;;;9.93;;
25191;SDS011;13143;50.924;5.320;2023-05-10T00:56:17;13.15;;;9.60;;
25191;SDS011;13143;50.924;5.320;2023-05-10T00:58:56;19.48;;;10.32;;
25191;SDS011;13143;50.924;5.320;2023-05-10T01:01:31;16.70;;;9.05;;
25191;SDS011;13143;50.924;5.320;2023-05-10T01:04:04;13.10;;;9.33;;
25191;SDS011;13143;50.924;5.320;2023-05-10T01:06:43;15.40;;;9.98;;
25191;SDS011;13143;50.924;5.320;2023-05-10T01:09:18;23.17;;;9.63;;
25191;SDS011;13143;50.924;5.320;2023-05-10T01:11:54;16.98;;;9.55;;
25191;SDS011;13143;50.924;5.320;2023-05-10T01:14:34;14.02;;;9.02;;
25191;SDS011;13143;50.924;5.320;2023-05-10T01:17:01;14.32;;;8.40;;
25191;SDS011;13143;50.924;5.320;2023-05-10T01:19:34;17.02;;;10.48;;
25191;SDS011;13143;50.924;5.320;2023-05-10T01:30:50;18.08;;;10.25;;
25191;SDS011;13143;50.924;5.320;2023-05-10T01:36:31;19.25;;;9.93;;
25191;SDS011;13143;50.924;5.320;2023-05-10T01:42:09;20.00;;;9.90;;
25191;SDS011;13143;50.924;5.320;2023-05-10T01:44:42;20.15;;;10.73;;
25191;SDS011;13143;50.924;5.320;2023-05-10T01:47:40;20.23;;;10.18;;
25191;SDS011;13143;50.924;5.320;2023-05-10T01:50:09;17.60;;;10.30;;
25191;SDS011;13143;50.924;5.320;2023-05-10T01:52:45;23.93;;;11.60;;
25191;SDS011;13143;50.924;5.320;2023-05-10T01:55:20;19.20;;;10.63;;
25191;SDS011;13143;50.924;5.320;2023-05-10T01:57:51;16.50;;;10.07;;
25191;SDS011;13143;50.924;5.320;2023-05-10T02:00:27;20.85;;;10.77;;
25191;SDS011;13143;50.924;5.320;2023-05-10T02:02:56;18.17;;;10.23;;
25191;SDS011;13143;50.924;5.320;2023-05-10T02:05:26;17.90;;;10.13;;
25191;SDS011;13143;50.924;5.320;2023-05-10T02:08:04;18.95;;;11.15;;
25191;SDS011;13143;50.924;5.320;2023-05-10T02:10:38;19.23;;;11.82;;
25191;SDS011;13143;50.924;5.320;2023-05-10T02:13:22;18.40;;;11.32;;
25191;SDS011;13143;50.924;5.320;2023-05-10T02:15:54;19.17;;;11.38;;
25191;SDS011;13143;50.924;5.320;2023-05-10T02:18:34;19.70;;;11.52;;
25191;SDS011;13143;50.924;5.320;2023-05-10T02:21:02;20.90;;;11.77;;
25191;SDS011;13143;50.924;5.320;2023-05-10T02:23:47;20.17;;;11.02;;
25191;SDS011;13143;50.924;5.320;2023-05-10T02:26:19;24.02;;;11.82;;
25191;SDS011;13143;50.924;5.320;2023-05-10T02:28:55;17.77;;;11.13;;
25191;SDS011;13143;50.924;5.320;2023-05-10T02:31:32;20.42;;;11.48;;
25191;SDS011;13143;50.924;5.320;2023-05-10T02:34:11;19.42;;;11.75;;
25191;SDS011;13143;50.924;5.320;2023-05-10T02:36:45;23.65;;;11.90;;
25191;SDS011;13143;50.924;5.320;2023-05-10T02:39:24;22.95;;;12.15;;
25191;SDS011;13143;50.924;5.320;2023-05-10T02:42:14;23.75;;;12.50;;
25191;SDS011;13143;50.924;5.320;2023-05-10T02:44:43;21.08;;;11.77;;
25191;SDS011;13143;50.924;5.320;2023-05-10T02:47:13;28.67;;;12.45;;
25191;SDS011;13143;50.924;5.320;2023-05-10T02:49:58;26.98;;;12.90;;
25191;SDS011;13143;50.924;5.320;2023-05-10T02:52:36;20.83;;;12.15;;
25191;SDS011;13143;50.924;5.320;2023-05-10T02:55:12;20.42;;;12.00;;
25191;SDS011;13143;50.924;5.320;2023-05-10T02:57:54;22.55;;;12.45;;
25191;SDS011;13143;50.924;5.320;2023-05-10T03:00:26;24.13;;;11.88;;
25191;SDS011;13143;50.924;5.320;2023-05-10T03:02:53;28.63;;;12.00;;
25191;SDS011;13143;50.924;5.320;2023-05-10T03:05:25;20.48;;;12.23;;
25191;SDS011;13143;50.924;5.320;2023-05-10T03:08:06;27.20;;;12.90;;
25191;SDS011;13143;50.924;5.320;2023-05-10T03:10:47;20.77;;;12.07;;
25191;SDS011;13143;50.924;5.320;2023-05-10T03:14:41;21.38;;;12.07;;
25191;SDS011;13143;50.924;5.320;2023-05-10T03:17:26;19.52;;;13.32;;
25191;SDS011;13143;50.924;5.320;2023-05-10T03:20:04;25.02;;;12.75;;
25191;SDS011;13143;50.924;5.320;2023-05-10T03:22:44;25.90;;;13.93;;
25191;SDS011;13143;50.924;5.320;2023-05-10T03:25:16;19.70;;;12.27;;
25191;SDS011;13143;50.924;5.320;2023-05-10T03:27:52;28.95;;;14.07;;
25191;SDS011;13143;50.924;5.320;2023-05-10T03:30:26;24.38;;;14.02;;
25191;SDS011;13143;50.924;5.320;2023-05-10T03:32:56;26.63;;;14.02;;
25191;SDS011;13143;50.924;5.320;2023-05-10T03:35:25;27.27;;;13.77;;
25191;SDS011;13143;50.924;5.320;2023-05-10T03:38:10;30.42;;;15.88;;
25191;SDS011;13143;50.924;5.320;2023-05-10T03:43:44;26.58;;;14.45;;
25191;SDS011;13143;50.924;5.320;2023-05-10T03:46:11;22.58;;;14.45;;
25191;SDS011;13143;50.924;5.320;2023-05-10T03:48:40;29.00;;;15.23;;
25191;SDS011;13143;50.924;5.320;2023-05-10T03:51:12;26.02;;;15.00;;
25191;SDS011;13143;50.924;5.320;2023-05-10T03:53:48;26.33;;;15.52;;
25191;SDS011;13143;50.924;5.320;2023-05-10T03:56:21;27.58;;;14.98;;
25191;SDS011;13143;50.924;5.320;2023-05-10T03:58:47;27.33;;;15.77;;
25191;SDS011;13143;50.924;5.320;2023-05-10T04:01:17;29.83;;;15.63;;
25191;SDS011;13143;50.924;5.320;2023-05-10T04:03:46;25.40;;;14.75;;
25191;SDS011;13143;50.924;5.320;2023-05-10T04:06:19;30.45;;;16.48;;
25191;SDS011;13143;50.924;5.320;2023-05-10T04:08:46;33.38;;;17.35;;
25191;SDS011;13143;50.924;5.320;2023-05-10T04:11:12;30.20;;;16.15;;
25191;SDS011;13143;50.924;5.320;2023-05-10T04:13:39;25.17;;;14.57;;
25191;SDS011;13143;50.924;5.320;2023-05-10T04:16:12;26.92;;;15.13;;
25191;SDS011;13143;50.924;5.320;2023-05-10T04:18:41;26.02;;;15.95;;
25191;SDS011;13143;50.924;5.320;2023-05-10T04:21:13;26.30;;;16.27;;
25191;SDS011;13143;50.924;5.320;2023-05-10T04:23:48;25.33;;;15.32;;
25191;SDS011;13143;50.924;5.320;2023-05-10T04:26:26;26.67;;;15.98;;
25191;SDS011;13143;50.924;5.320;2023-05-10T04:29:04;26.88;;;16.13;;
25191;SDS011;13143;50.924;5.320;2023-05-10T04:31:44;25.15;;;15.52;;
25191;SDS011;13143;50.924;5.320;2023-05-10T04:34:10;30.17;;;17.35;;
25191;SDS011;13143;50.924;5.320;2023-05-10T04:36:36;24.95;;;16.27;;
25191;SDS011;13143;50.924;5.320;2023-05-10T04:39:12;28.30;;;17.52;;
25191;SDS011;13143;50.924;5.320;2023-05-10T04:41:39;32.60;;;17.83;;
25191;SDS011;13143;50.924;5.320;2023-05-10T04:44:05;30.00;;;17.35;;
25191;SDS011;13143;50.924;5.320;2023-05-10T04:46:37;35.15;;;18.35;;
25191;SDS011;13143;50.924;5.320;2023-05-10T04:49:04;27.55;;;17.77;;
25191;SDS011;13143;50.924;5.320;2023-05-10T04:51:31;30.15;;;17.63;;
25191;SDS011;13143;50.924;5.320;2023-05-10T04:54:03;27.70;;;16.33;;
25191;SDS011;13143;50.924;5.320;2023-05-10T04:56:33;28.27;;;16.67;;
25191;SDS011;13143;50.924;5.320;2023-05-10T04:58:59;25.58;;;16.17;;
25191;SDS011;13143;50.924;5.320;2023-05-10T05:01:29;25.75;;;16.60;;
25191;SDS011;13143;50.924;5.320;2023-05-10T05:04:02;26.77;;;16.63;;
25191;SDS011;13143;50.924;5.320;2023-05-10T05:06:37;30.55;;;17.63;;
25191;SDS011;13143;50.924;5.320;2023-05-10T05:09:11;27.60;;;17.75;;
25191;SDS011;13143;50.924;5.320;2023-05-10T05:11:49;33.60;;;17.73;;
25191;SDS011;13143;50.924;5.320;2023-05-10T05:14:19;30.17;;;17.40;;
25191;SDS011;13143;50.924;5.320;2023-05-10T05:16:57;29.05;;;18.25;;
25191;SDS011;13143;50.924;5.320;2023-05-10T05:19:32;29.60;;;18.08;;
25191;SDS011;13143;50.924;5.320;2023-05-10T05:22:21;29.17;;;18.92;;
25191;SDS011;13143;50.924;5.320;2023-05-10T05:25:06;31.25;;;19.50;;
25191;SDS011;13143;50.924;5.320;2023-05-10T05:27:41;33.30;;;20.27;;
25191;SDS011;13143;50.924;5.320;2023-05-10T05:30:19;30.23;;;19.02;;
25191;SDS011;13143;50.924;5.320;2023-05-10T05:32:46;33.33;;;19.67;;
25191;SDS011;13143;50.924;5.320;2023-05-10T05:35:15;32.35;;;19.20;;
25191;SDS011;13143;50.924;5.320;2023-05-10T05:37:48;34.58;;;20.98;;
25191;SDS011;13143;50.924;5.320;2023-05-10T05:40:34;36.05;;;21.40;;
25191;SDS011;13143;50.924;5.320;2023-05-10T05:43:01;38.03;;;22.58;;
25191;SDS011;13143;50.924;5.320;2023-05-10T05:45:43;40.45;;;23.08;;
25191;SDS011;13143;50.924;5.320;2023-05-10T05:48:20;43.88;;;23.70;;
25191;SDS011;13143;50.924;5.320;2023-05-10T05:51:04;47.67;;;26.67;;
25191;SDS011;13143;50.924;5.320;2023-05-10T05:56:36;48.35;;;25.88;;
25191;SDS011;13143;50.924;5.320;2023-05-10T05:59:09;43.45;;;25.15;;
25191;SDS011;13143;50.924;5.320;2023-05-10T06:01:44;40.92;;;23.58;;
25191;SDS011;13143;50.924;5.320;2023-05-10T06:04:23;45.85;;;26.13;;
25191;SDS011;13143;50.924;5.320;2023-05-10T06:07:01;43.97;;;25.63;;
25191;SDS011;13143;50.924;5.320;2023-05-10T06:09:40;42.55;;;25.35;;
25191;SDS011;13143;50.924;5.320;2023-05-10T06:12:06;39.28;;;24.35;;
25191;SDS011;13143;50.924;5.320;2023-05-10T06:14:53;42.72;;;25.83;;
25191;SDS011;13143;50.924;5.320;2023-05-10T06:17:23;46.22;;;26.38;;
25191;SDS011;13143;50.924;5.320;2023-05-10T06:20:08;45.35;;;25.52;;
25191;SDS011;13143;50.924;5.320;2023-05-10T06:22:41;45.97;;;25.83;;
25191;SDS011;13143;50.924;5.320;2023-05-10T06:25:07;45.78;;;26.70;;
25191;SDS011;13143;50.924;5.320;2023-05-10T06:27:46;47.05;;;26.92;;
25191;SDS011;13143;50.924;5.320;2023-05-10T06:30:15;48.33;;;27.83;;
25191;SDS011;13143;50.924;5.320;2023-05-10T06:32:42;51.00;;;30.13;;
25191;SDS011;13143;50.924;5.320;2023-05-10T06:35:12;49.13;;;27.88;;
25191;SDS011;13143;50.924;5.320;2023-05-10T06:37:41;47.65;;;28.75;;
25191;SDS011;13143;50.924;5.320;2023-05-10T06:40:40;49.50;;;28.05;;
25191;SDS011;13143;50.924;5.320;2023-05-10T06:43:42;50.60;;;28.10;;
25191;SDS011;13143;50.924;5.320;2023-05-10T06:46:14;52.38;;;29.40;;
25191;SDS011;13143;50.924;5.320;2023-05-10T06:48:51;53.25;;;28.98;;
25191;SDS011;13143;50.924;5.320;2023-05-10T06:51:21;50.60;;;28.58;;
25191;SDS011;13143;50.924;5.320;2023-05-10T06:53:50;50.30;;;27.77;;
25191;SDS011;13143;50.924;5.320;2023-05-10T06:56:37;54.22;;;29.55;;
25191;SDS011;13143;50.924;5.320;2023-05-10T06:59:10;57.95;;;30.20;;
25191;SDS011;13143;50.924;5.320;2023-05-10T07:01:49;57.47;;;28.65;;
25191;SDS011;13143;50.924;5.320;2023-05-10T07:04:16;59.45;;;29.75;;
25191;SDS011;13143;50.924;5.320;2023-05-10T07:06:45;57.30;;;28.65;;
25191;SDS011;13143;50.924;5.320;2023-05-10T07:09:12;57.95;;;29.55;;
25191;SDS011;13143;50.924;5.320;2023-05-10T07:12:38;58.33;;;29.90;;
25191;SDS011;13143;50.924;5.320;2023-05-10T07:15:04;59.00;;;30.15;;
25191;SDS011;13143;50.924;5.320;2023-05-10T07:17:34;60.47;;;29.95;;
25191;SDS011;13143;50.924;5.320;2023-05-10T07:20:04;57.17;;;28.42;;
25191;SDS011;13143;50.924;5.320;2023-05-10T07:22:37;52.33;;;28.13;;
25191;SDS011;13143;50.924;5.320;2023-05-10T07:25:13;55.15;;;29.05;;
25191;SDS011;13143;50.924;5.320;2023-05-10T07:27:45;52.95;;;29.38;;
25191;SDS011;13143;50.924;5.320;2023-05-10T07:30:37;48.42;;;28.33;;
25191;SDS011;13143;50.924;5.320;2023-05-10T07:33:10;55.47;;;29.88;;
25191;SDS011;13143;50.924;5.320;2023-05-10T07:35:40;48.75;;;27.95;;
25191;SDS011;13143;50.924;5.320;2023-05-10T07:38:06;53.13;;;28.70;;
25191;SDS011;13143;50.924;5.320;2023-05-10T07:40:57;52.75;;;28.40;;
25191;SDS011;13143;50.924;5.320;2023-05-10T07:43:26;54.05;;;30.40;;
25191;SDS011;13143;50.924;5.320;2023-05-10T07:45:56;50.45;;;27.05;;
25191;SDS011;13143;50.924;5.320;2023-05-10T07:48:25;48.67;;;27.35;;
25191;SDS011;13143;50.924;5.320;2023-05-10T07:50:52;50.35;;;27.65;;
25191;SDS011;13143;50.924;5.320;2023-05-10T07:53:21;43.88;;;25.05;;
25191;SDS011;13143;50.924;5.320;2023-05-10T07:56:19;42.42;;;25.88;;
25191;SDS011;13143;50.924;5.320;2023-05-10T08:01:29;48.60;;;25.67;;
25191;SDS011;13143;50.924;5.320;2023-05-10T08:04:00;40.97;;;23.73;;
25191;SDS011;13143;50.924;5.320;2023-05-10T08:06:36;33.00;;;20.40;;
25191;SDS011;13143;50.924;5.320;2023-05-10T08:09:09;13.52;;;6.53;;
25191;SDS011;13143;50.924;5.320;2023-05-10T08:11:41;9.48;;;4.40;;
25191;SDS011;13143;50.924;5.320;2023-05-10T08:14:24;5.32;;;3.50;;
25191;SDS011;13143;50.924;5.320;2023-05-10T08:16:54;4.18;;;3.75;;
25191;SDS011;13143;50.924;5.320;2023-05-10T08:19:43;4.18;;;2.92;;
25191;SDS011;13143;50.924;5.320;2023-05-10T08:22:12;3.38;;;2.58;;
25191;SDS011;13143;50.924;5.320;2023-05-10T08:24:41;8.60;;;3.38;;
25191;SDS011;13143;50.924;5.320;2023-05-10T08:27:08;5.97;;;2.70;;
25191;SDS011;13143;50.924;5.320;2023-05-10T08:29:34;4.68;;;3.20;;
25191;SDS011;13143;50.924;5.320;2023-05-10T08:32:01;8.40;;;2.78;;
25191;SDS011;13143;50.924;5.320;2023-05-10T08:34:30;5.70;;;2.97;;
25191;SDS011;13143;50.924;5.320;2023-05-10T08:37:06;4.68;;;2.67;;
25191;SDS011;13143;50.924;5.320;2023-05-10T08:39:47;5.03;;;2.65;;
25191;SDS011;13143;50.924;5.320;2023-05-10T08:42:16;4.22;;;2.97;;
25191;SDS011;13143;50.924;5.320;2023-05-10T08:44:51;4.22;;;3.20;;
25191;SDS011;13143;50.924;5.320;2023-05-10T08:47:22;4.25;;;3.58;;
25191;SDS011;13143;50.924;5.320;2023-05-10T08:50:12;5.50;;;3.00;;
25191;SDS011;13143;50.924;5.320;2023-05-10T08:53:09;4.28;;;3.30;;
25191;SDS011;13143;50.924;5.320;2023-05-10T08:55:41;5.60;;;3.70;;
25191;SDS011;13143;50.924;5.320;2023-05-10T08:58:09;7.95;;;3.63;;
25191;SDS011;13143;50.924;5.320;2023-05-10T09:00:38;6.15;;;3.80;;
25191;SDS011;13143;50.924;5.320;2023-05-10T09:03:07;6.93;;;4.00;;
25191;SDS011;13143;50.924;5.320;2023-05-10T09:05:55;8.00;;;4.60;;
25191;SDS011;13143;50.924;5.320;2023-05-10T09:08:31;7.72;;;5.05;;
25191;SDS011;13143;50.924;5.320;2023-05-10T09:11:02;6.70;;;4.28;;
25191;SDS011;13143;50.924;5.320;2023-05-10T09:13:34;7.83;;;5.07;;
25191;SDS011;13143;50.924;5.320;2023-05-10T09:16:04;7.57;;;4.78;;
25191;SDS011;13143;50.924;5.320;2023-05-10T09:18:46;6.20;;;4.60;;
25191;SDS011;13143;50.924;5.320;2023-05-10T09:21:27;6.78;;;5.18;;
25191;SDS011;13143;50.924;5.320;2023-05-10T09:23:57;9.45;;;5.50;;
25191;SDS011;13143;50.924;5.320;2023-05-10T09:26:31;7.93;;;5.30;;
25191;SDS011;13143;50.924;5.320;2023-05-10T09:28:59;7.95;;;5.25;;
25191;SDS011;13143;50.924;5.320;2023-05-10T09:34:23;9.77;;;5.55;;
25191;SDS011;13143;50.924;5.320;2023-05-10T09:37:01;9.38;;;5.95;;
25191;SDS011;13143;50.924;5.320;2023-05-10T09:42:05;8.23;;;6.10;;
25191;SDS011;13143;50.924;5.320;2023-05-10T09:44:34;8.10;;;6.40;;
25191;SDS011;13143;50.924;5.320;2023-05-10T09:47:06;14.05;;;6.95;;
25191;SDS011;13143;50.924;5.320;2023-05-10T09:49:51;9.73;;;7.20;;
25191;SDS011;13143;50.924;5.320;2023-05-10T09:52:21;10.77;;;7.13;;
25191;SDS011;13143;50.924;5.320;2023-05-10T09:55:21;11.05;;;7.50;;
25191;SDS011;13143;50.924;5.320;2023-05-10T09:58:04;11.50;;;8.25;;
25191;SDS011;13143;50.924;5.320;2023-05-10T10:00:38;15.85;;;9.30;;
25191;SDS011;13143;50.924;5.320;2023-05-10T10:03:13;11.63;;;8.55;;
25191;SDS011;13143;50.924;5.320;2023-05-10T10:05:44;16.83;;;9.30;;
25191;SDS011;13143;50.924;5.320;2023-05-10T10:08:24;15.43;;;11.25;;
25191;SDS011;13143;50.924;5.320;2023-05-10T10:11:00;21.43;;;11.80;;
25191;SDS011;13143;50.924;5.320;2023-05-10T10:13:38;16.63;;;10.80;;
25191;SDS011;13143;50.924;5.320;2023-05-10T10:16:16;16.17;;;10.77;;
25191;SDS011;13143;50.924;5.320;2023-05-10T10:18:48;18.60;;;11.95;;
25191;SDS011;13143;50.924;5.320;2023-05-10T10:21:26;18.05;;;12.15;;
25191;SDS011;13143;50.924;5.320;2023-05-10T10:23:59;18.45;;;11.63;;
25191;SDS011;13143;50.924;5.320;2023-05-10T10:26:34;25.52;;;13.15;;
25191;SDS011;13143;50.924;5.320;2023-05-10T10:34:56;20.08;;;12.80;;
25191;SDS011;13143;50.924;5.320;2023-05-10T10:37:23;22.42;;;13.10;;
25191;SDS011;13143;50.924;5.320;2023-05-10T10:40:52;18.88;;;12.45;;
25191;SDS011;13143;50.924;5.320;2023-05-10T10:43:21;18.45;;;11.70;;
25191;SDS011;13143;50.924;5.320;2023-05-10T10:49:08;16.65;;;10.38;;
25191;SDS011;13143;50.924;5.320;2023-05-10T10:51:38;16.02;;;10.32;;
25191;SDS011;13143;50.924;5.320;2023-05-10T10:54:09;15.93;;;10.70;;
25191;SDS011;13143;50.924;5.320;2023-05-10T10:56:46;16.63;;;9.60;;
25191;SDS011;13143;50.924;5.320;2023-05-10T10:59:43;15.50;;;10.25;;
25191;SDS011;13143;50.924;5.320;2023-05-10T11:05:48;14.40;;;8.68;;
25191;SDS011;13143;50.924;5.320;2023-05-10T11:08:30;12.30;;;8.40;;
25191;SDS011;13143;50.924;5.320;2023-05-10T11:13:54;12.45;;;7.60;;
25191;SDS011;13143;50.924;5.320;2023-05-10T11:16:41;14.52;;;8.35;;
25191;SDS011;13143;50.924;5.320;2023-05-10T11:19:11;12.15;;;8.02;;
25191;SDS011;13143;50.924;5.320;2023-05-10T11:24:17;13.38;;;8.02;;
25191;SDS011;13143;50.924;5.320;2023-05-10T11:26:51;10.65;;;7.78;;
25191;SDS011;13143;50.924;5.320;2023-05-10T11:29:17;8.43;;;6.90;;
25191;SDS011;13143;50.924;5.320;2023-05-10T11:31:44;10.68;;;7.13;;
25191;SDS011;13143;50.924;5.320;2023-05-10T11:34:33;9.18;;;6.40;;
25191;SDS011;13143;50.924;5.320;2023-05-10T11:37:10;8.27;;;5.93;;
25191;SDS011;13143;50.924;5.320;2023-05-10T11:39:48;7.32;;;6.05;;
25191;SDS011;13143;50.924;5.320;2023-05-10T11:42:15;8.65;;;6.18;;
25191;SDS011;13143;50.924;5.320;2023-05-10T11:44:52;9.90;;;6.60;;
25191;SDS011;13143;50.924;5.320;2023-05-10T11:47:27;9.13;;;6.13;;
25191;SDS011;13143;50.924;5.320;2023-05-10T11:50:01;12.30;;;6.40;;
25191;SDS011;13143;50.924;5.320;2023-05-10T11:52:35;7.00;;;5.80;;
25191;SDS011;13143;50.924;5.320;2023-05-10T11:55:08;8.48;;;6.38;;
25191;SDS011;13143;50.924;5.320;2023-05-10T11:57:37;8.27;;;6.22;;
25191;SDS011;13143;50.924;5.320;2023-05-10T12:00:11;7.65;;;5.63;;
25191;SDS011;13143;50.924;5.320;2023-05-10T12:02:40;6.70;;;5.40;;
25191;SDS011;13143;50.924;5.320;2023-05-10T12:05:10;8.18;;;5.90;;
25191;SDS011;13143;50.924;5.320;2023-05-10T12:07:42;7.63;;;5.68;;
25191;SDS011;13143;50.924;5.320;2023-05-10T12:10:12;7.63;;;5.25;;
25191;SDS011;13143;50.924;5.320;2023-05-10T12:12:44;6.97;;;4.43;;
25191;SDS011;13143;50.924;5.320;2023-05-10T12:17:50;6.80;;;5.03;;
25191;SDS011;13143;50.924;5.320;2023-05-10T12:20:20;6.03;;;4.93;;
25191;SDS011;13143;50.924;5.320;2023-05-10T12:22:51;5.97;;;4.57;;
25191;SDS011;13143;50.924;5.320;2023-05-10T12:25:42;6.22;;;4.55;;
25191;SDS011;13143;50.924;5.320;2023-05-10T12:28:08;6.05;;;4.53;;
25191;SDS011;13143;50.924;5.320;2023-05-10T12:30:40;7.57;;;4.55;;
25191;SDS011;13143;50.924;5.320;2023-05-10T12:33:10;6.53;;;5.13;;
25191;SDS011;13143;50.924;5.320;2023-05-10T12:35:53;7.88;;;4.35;;
25191;SDS011;13143;50.924;5.320;2023-05-10T12:38:32;7.30;;;4.78;;
25191;SDS011;13143;50.924;5.320;2023-05-10T12:41:12;5.82;;;4.30;;
25191;SDS011;13143;50.924;5.320;2023-05-10T12:43:41;5.15;;;4.13;;
25191;SDS011;13143;50.924;5.320;2023-05-10T12:46:16;6.35;;;4.38;;
25191;SDS011;13143;50.924;5.320;2023-05-10T12:48:44;8.43;;;4.70;;
25191;SDS011;13143;50.924;5.320;2023-05-10T12:51:14;6.35;;;3.88;;
25191;SDS011;13143;50.924;5.320;2023-05-10T12:53:44;5.68;;;4.22;;
25191;SDS011;13143;50.924;5.320;2023-05-10T12:56:15;6.13;;;3.83;;
25191;SDS011;13143;50.924;5.320;2023-05-10T12:58:42;4.53;;;3.20;;
25191;SDS011;13143;50.924;5.320;2023-05-10T13:01:13;8.98;;;3.42;;
25191;SDS011;13143;50.924;5.320;2023-05-10T13:03:43;4.47;;;3.28;;
25191;SDS011;13143;50.924;5.320;2023-05-10T13:06:13;4.55;;;2.83;;
25191;SDS011;13143;50.924;5.320;2023-05-10T13:08:39;4.65;;;3.58;;
25191;SDS011;13143;50.924;5.320;2023-05-10T13:11:05;3.97;;;3.50;;
25191;SDS011;13143;50.924;5.320;2023-05-10T13:13:41;4.70;;;3.83;;
25191;SDS011;13143;50.924;5.320;2023-05-10T13:16:08;4.30;;;3.28;;
25191;SDS011;13143;50.924;5.320;2023-05-10T13:18:46;7.20;;;3.30;;
25191;SDS011;13143;50.924;5.320;2023-05-10T13:21:16;3.95;;;3.53;;
25191;SDS011;13143;50.924;5.320;2023-05-10T13:23:52;6.05;;;3.88;;
25191;SDS011;13143;50.924;5.320;2023-05-10T13:26:28;4.75;;;3.95;;
25191;SDS011;13143;50.924;5.320;2023-05-10T13:29:03;4.00;;;3.55;;
25191;SDS011;13143;50.924;5.320;2023-05-10T13:31:30;4.57;;;4.05;;
25191;SDS011;13143;50.924;5.320;2023-05-10T13:33:57;4.05;;;3.65;;
25191;SDS011;13143;50.924;5.320;2023-05-10T13:36:23;6.68;;;3.38;;
25191;SDS011;13143;50.924;5.320;2023-05-10T13:38:52;5.90;;;3.80;;
25191;SDS011;13143;50.924;5.320;2023-05-10T13:41:24;3.88;;;3.40;;
25191;SDS011;13143;50.924;5.320;2023-05-10T13:43:51;3.00;;;2.42;;
25191;SDS011;13143;50.924;5.320;2023-05-10T13:46:23;3.35;;;2.70;;
25191;SDS011;13143;50.924;5.320;2023-05-10T13:49:13;4.93;;;2.95;;
25191;SDS011;13143;50.924;5.320;2023-05-10T13:51:43;3.83;;;2.50;;
25191;SDS011;13143;50.924;5.320;2023-05-10T13:54:10;2.67;;;2.47;;
25191;SDS011;13143;50.924;5.320;2023-05-10T13:56:38;2.80;;;2.58;;
25191;SDS011;13143;50.924;5.320;2023-05-10T13:59:09;3.55;;;3.25;;
25191;SDS011;13143;50.924;5.320;2023-05-10T14:01:57;4.25;;;3.00;;
25191;SDS011;13143;50.924;5.320;2023-05-10T14:04:32;3.60;;;2.33;;
25191;SDS011;13143;50.924;5.320;2023-05-10T14:07:03;2.85;;;2.30;;
25191;SDS011;13143;50.924;5.320;2023-05-10T14:09:42;5.07;;;3.22;;
25191;SDS011;13143;50.924;5.320;2023-05-10T14:12:17;6.55;;;3.58;;
25191;SDS011;13143;50.924;5.320;2023-05-10T14:15:04;5.22;;;3.05;;
25191;SDS011;13143;50.924;5.320;2023-05-10T14:17:32;4.18;;;3.65;;
25191;SDS011;13143;50.924;5.320;2023-05-10T14:20:31;5.57;;;3.60;;
25191;SDS011;13143;50.924;5.320;2023-05-10T14:22:59;4.28;;;3.35;;
25191;SDS011;13143;50.924;5.320;2023-05-10T14:25:31;3.40;;;3.10;;
25191;SDS011;13143;50.924;5.320;2023-05-10T14:28:04;3.93;;;3.20;;
25191;SDS011;13143;50.924;5.320;2023-05-10T14:30:36;6.25;;;3.50;;
25191;SDS011;13143;50.924;5.320;2023-05-10T14:33:11;6.43;;;3.42;;
25191;SDS011;13143;50.924;5.320;2023-05-10T14:35:48;5.82;;;3.42;;
25191;SDS011;13143;50.924;5.320;2023-05-10T14:38:22;4.78;;;3.75;;
25191;SDS011;13143;50.924;5.320;2023-05-10T14:40:52;4.70;;;3.75;;
25191;SDS011;13143;50.924;5.320;2023-05-10T14:43:27;3.83;;;3.10;;
25191;SDS011;13143;50.924;5.320;2023-05-10T14:45:59;5.32;;;3.28;;
25191;SDS011;13143;50.924;5.320;2023-05-10T14:48:28;4.20;;;3.60;;
25191;SDS011;13143;50.924;5.320;2023-05-10T14:51:00;4.57;;;3.70;;
25191;SDS011;13143;50.924;5.320;2023-05-10T14:53:27;5.70;;;4.13;;
25191;SDS011;13143;50.924;5.320;2023-05-10T14:55:56;6.90;;;4.10;;
25191;SDS011;13143;50.924;5.320;2023-05-10T14:58:23;3.88;;;3.10;;
25191;SDS011;13143;50.924;5.320;2023-05-10T15:00:50;4.72;;;3.00;;
25191;SDS011;13143;50.924;5.320;2023-05-10T15:03:20;5.03;;;3.55;;
25191;SDS011;13143;50.924;5.320;2023-05-10T15:05:47;3.13;;;2.83;;
25191;SDS011;13143;50.924;5.320;2023-05-10T15:08:44;4.40;;;2.90;;
25191;SDS011;13143;50.924;5.320;2023-05-10T15:11:15;4.65;;;1.92;;
25191;SDS011;13143;50.924;5.320;2023-05-10T15:13:46;5.03;;;1.92;;
25191;SDS011;13143;50.924;5.320;2023-05-10T15:16:15;2.97;;;2.03;;
25191;SDS011;13143;50.924;5.320;2023-05-10T15:18:59;2.85;;;2.00;;
25191;SDS011;13143;50.924;5.320;2023-05-10T15:21:35;4.60;;;2.20;;
25191;SDS011;13143;50.924;5.320;2023-05-10T15:24:10;2.83;;;2.20;;
25191;SDS011;13143;50.924;5.320;2023-05-10T15:26:46;3.40;;;2.10;;
25191;SDS011;13143;50.924;5.320;2023-05-10T15:29:24;3.53;;;2.40;;
25191;SDS011;13143;50.924;5.320;2023-05-10T15:32:00;2.35;;;1.80;;
25191;SDS011;13143;50.924;5.320;2023-05-10T15:34:33;3.28;;;1.98;;
25191;SDS011;13143;50.924;5.320;2023-05-10T15:37:08;4.95;;;2.08;;
25191;SDS011;13143;50.924;5.320;2023-05-10T15:39:40;3.08;;;2.38;;
25191;SDS011;13143;50.924;5.320;2023-05-10T15:42:19;3.95;;;2.90;;
25191;SDS011;13143;50.924;5.320;2023-05-10T15:45:04;7.57;;;4.40;;
25191;SDS011;13143;50.924;5.320;2023-05-10T15:47:40;5.55;;;3.42;;
25191;SDS011;13143;50.924;5.320;2023-05-10T15:50:15;7.72;;;3.95;;
25191;SDS011;13143;50.924;5.320;2023-05-10T15:52:47;11.63;;;4.40;;
25191;SDS011;13143;50.924;5.320;2023-05-10T15:55:19;10.13;;;4.57;;
25191;SDS011;13143;50.924;5.320;2023-05-10T15:57:51;7.38;;;5.13;;
25191;SDS011;13143;50.924;5.320;2023-05-10T16:00:27;7.35;;;4.68;;
25191;SDS011;13143;50.924;5.320;2023-05-10T16:03:02;10.50;;;5.43;;
25191;SDS011;13143;50.924;5.320;2023-05-10T16:05:28;8.93;;;5.50;;